createdAt,value
2023-06-28T00:01:18.650Z,1.23
2023-06-28T00:03:45.867Z,1.30
2023-06-28T00:06:12.978Z,1.40
2023-06-28T00:08:41.775Z,1.60
2023-06-28T00:11:09.548Z,2.13
2023-06-28T00:13:37.206Z,1.63
2023-06-28T00:16:04.341Z,1.50
2023-06-28T00:18:31.472Z,1.53
2023-06-28T00:20:58.641Z,1.40
2023-06-28T00:23:26.205Z,1.30
2023-06-28T00:25:53.259Z,1.20
2023-06-28T00:28:20.335Z,1.30
2023-06-28T00:30:47.422Z,0.97
2023-06-28T00:33:20.804Z,1.10
2023-06-28T00:35:48.647Z,1.20
2023-06-28T00:38:15.753Z,1.30
2023-06-28T00:40:43.079Z,1.60
2023-06-28T00:43:10.333Z,1.33
2023-06-28T00:45:37.487Z,1.23
2023-06-28T00:48:04.684Z,1.30
2023-06-28T00:50:31.837Z,1.30
2023-06-28T00:52:58.900Z,1.50
2023-06-28T00:55:25.960Z,1.30
2023-06-28T00:57:53.037Z,1.57
2023-06-28T01:00:20.141Z,1.10
2023-06-28T01:02:47.313Z,1.50
2023-06-28T01:05:14.739Z,1.30
2023-06-28T01:07:42.061Z,1.23
2023-06-28T01:10:09.262Z,1.27
2023-06-28T01:12:36.514Z,1.20
2023-06-28T01:15:04.773Z,1.20
2023-06-28T01:17:31.932Z,1.10
2023-06-28T01:19:59.040Z,1.20
2023-06-28T01:22:26.470Z,1.13
2023-06-28T01:24:54.106Z,1.40
2023-06-28T01:27:21.208Z,1.20
2023-06-28T01:29:48.522Z,1.17
2023-06-28T01:32:17.272Z,1.30
2023-06-28T01:34:44.428Z,1.20
2023-06-28T01:37:11.500Z,1.17
2023-06-28T01:39:38.621Z,1.27
2023-06-28T01:42:05.952Z,1.40
2023-06-28T01:44:33.090Z,1.10
2023-06-28T01:47:00.213Z,1.30
2023-06-28T01:49:27.295Z,1.27
2023-06-28T01:51:55.724Z,1.30
2023-06-28T01:54:22.801Z,1.30
2023-06-28T01:56:49.914Z,1.30
2023-06-28T01:59:17.022Z,1.37
2023-06-28T02:01:45.704Z,1.20
2023-06-28T02:04:12.890Z,1.23
2023-06-28T02:06:41.015Z,1.30
2023-06-28T02:09:08.092Z,1.20
2023-06-28T02:11:35.283Z,1.30
2023-06-28T02:14:02.464Z,1.20
2023-06-28T02:16:32.767Z,1.30
2023-06-28T02:19:01.746Z,1.37
2023-06-28T02:21:28.851Z,1.33
2023-06-28T02:23:55.920Z,1.17
2023-06-28T02:26:22.988Z,1.30
2023-06-28T02:28:50.086Z,1.30
2023-06-28T02:31:20.101Z,1.07
2023-06-28T02:33:47.274Z,1.13
2023-06-28T02:36:14.731Z,1.30
2023-06-28T02:38:42.183Z,1.07
2023-06-28T02:41:09.283Z,1.40
2023-06-28T02:43:36.372Z,1.57
2023-06-28T02:46:03.464Z,1.17
2023-06-28T02:48:30.552Z,1.03
2023-06-28T02:50:57.623Z,1.40
2023-06-28T02:53:24.673Z,1.40
2023-06-28T02:55:51.737Z,1.30
2023-06-28T02:58:19.071Z,1.30
2023-06-28T03:00:48.291Z,1.20
2023-06-28T03:03:15.608Z,1.33
2023-06-28T03:05:42.905Z,1.30
2023-06-28T03:08:10.018Z,1.50
2023-06-28T03:10:37.208Z,1.10
2023-06-28T03:13:04.355Z,1.20
2023-06-28T03:15:31.456Z,1.20
2023-06-28T03:17:58.590Z,1.20
2023-06-28T03:20:26.199Z,1.20
2023-06-28T03:22:53.305Z,1.30
2023-06-28T03:25:20.727Z,1.40
2023-06-28T03:27:47.873Z,1.50
2023-06-28T03:30:14.992Z,1.20
2023-06-28T03:32:42.172Z,1.30
2023-06-28T03:35:09.518Z,1.30
2023-06-28T03:37:36.606Z,1.20
2023-06-28T03:40:04.131Z,1.30
2023-06-28T03:42:31.215Z,1.10
2023-06-28T03:44:58.263Z,1.10
2023-06-28T03:47:25.368Z,1.13
2023-06-28T03:49:52.460Z,1.10
2023-06-28T03:52:19.572Z,1.13
2023-06-28T03:54:46.941Z,1.30
2023-06-28T03:57:14.113Z,1.30
2023-06-28T03:59:41.264Z,1.20
2023-06-28T04:02:08.379Z,1.00
2023-06-28T04:04:35.584Z,1.40
2023-06-28T04:07:02.884Z,1.30
2023-06-28T04:09:30.132Z,1.20
2023-06-28T04:11:57.221Z,1.10
2023-06-28T04:14:27.441Z,1.23
2023-06-28T04:16:54.512Z,1.20
2023-06-28T04:19:21.841Z,1.50
2023-06-28T04:21:49.244Z,1.57
2023-06-28T04:24:16.618Z,1.20
2023-06-28T04:26:43.675Z,1.33
2023-06-28T04:29:10.872Z,1.30
2023-06-28T04:31:37.971Z,1.30
2023-06-28T04:34:06.808Z,1.30
2023-06-28T04:36:33.867Z,1.20
2023-06-28T04:39:04.414Z,1.27
2023-06-28T04:41:31.544Z,1.63
2023-06-28T04:43:59.206Z,1.50
2023-06-28T04:46:27.898Z,1.40
2023-06-28T04:48:55.341Z,1.30
2023-06-28T04:51:22.631Z,1.40
2023-06-28T04:53:49.924Z,1.50
2023-06-28T04:56:17.004Z,1.20
2023-06-28T04:58:44.100Z,1.13
2023-06-28T05:01:11.222Z,1.37
2023-06-28T05:03:39.987Z,1.13
2023-06-28T05:06:07.576Z,1.63
2023-06-28T05:08:34.749Z,1.63
2023-06-28T05:11:01.960Z,1.17
2023-06-28T05:13:29.071Z,1.13
2023-06-28T05:15:56.248Z,1.30
2023-06-28T05:18:23.551Z,1.27
2023-06-28T05:20:50.832Z,1.40
2023-06-28T05:23:18.439Z,1.30
2023-06-28T05:25:45.811Z,1.40
2023-06-28T05:28:14.511Z,1.07
2023-06-28T05:30:42.951Z,1.23
2023-06-28T05:33:11.010Z,1.43
2023-06-28T05:35:38.165Z,1.30
2023-06-28T05:38:05.516Z,1.50
2023-06-28T05:40:33.515Z,1.17
2023-06-28T05:43:00.609Z,1.10
2023-06-28T05:45:27.826Z,1.10
2023-06-28T05:47:55.208Z,1.30
2023-06-28T05:50:22.995Z,1.40
2023-06-28T05:52:50.353Z,1.30
2023-06-28T05:55:17.474Z,1.50
2023-06-28T05:57:45.940Z,1.20
2023-06-28T06:00:13.378Z,1.27
2023-06-28T06:02:41.073Z,1.30
2023-06-28T06:05:08.675Z,1.37
2023-06-28T06:07:40.720Z,1.40
2023-06-28T06:10:08.640Z,1.30
2023-06-28T06:12:35.788Z,1.40
2023-06-28T06:15:02.948Z,1.30
2023-06-28T06:17:30.054Z,1.20
2023-06-28T06:19:57.147Z,1.30
2023-06-28T06:22:24.215Z,1.17
2023-06-28T06:24:51.319Z,1.60
2023-06-28T06:27:18.374Z,1.20
2023-06-28T06:29:45.458Z,1.60
2023-06-28T06:32:12.521Z,1.23
2023-06-28T06:34:40.422Z,1.20
2023-06-28T06:37:13.053Z,1.10
2023-06-28T06:39:41.141Z,1.07
2023-06-28T06:42:08.429Z,1.27
2023-06-28T06:44:35.911Z,1.13
2023-06-28T06:47:03.172Z,1.30
2023-06-28T06:49:30.617Z,1.00
2023-06-28T06:51:57.746Z,1.30
2023-06-28T06:54:26.007Z,1.30
2023-06-28T06:56:53.142Z,1.37
2023-06-28T06:59:21.046Z,1.30
2023-06-28T07:01:48.319Z,1.10
2023-06-28T07:04:15.412Z,1.40
2023-06-28T07:06:43.463Z,1.30
2023-06-28T07:09:10.584Z,1.53
2023-06-28T07:11:37.709Z,1.20
2023-06-28T07:14:04.814Z,1.67
2023-06-28T07:16:31.980Z,1.23
2023-06-28T07:18:59.201Z,1.00
2023-06-28T07:21:26.391Z,1.10
2023-06-28T07:23:55.273Z,1.30
2023-06-28T07:26:22.913Z,1.10
2023-06-28T07:28:50.739Z,1.43
2023-06-28T07:31:17.838Z,1.40
2023-06-28T07:33:44.949Z,1.40
2023-06-28T07:36:12.013Z,1.40
2023-06-28T07:38:39.102Z,1.30
2023-06-28T07:41:07.603Z,1.13
2023-06-28T07:43:35.106Z,1.23
2023-06-28T07:46:04.356Z,1.00
2023-06-28T07:48:31.573Z,1.10
2023-06-28T07:50:58.812Z,1.35
2023-06-28T07:53:25.926Z,1.10
2023-06-28T07:55:53.030Z,1.20
2023-06-28T07:58:20.978Z,1.00
2023-06-28T08:00:48.073Z,1.00
2023-06-28T08:03:15.265Z,1.15
2023-06-28T08:05:43.145Z,1.05
2023-06-28T08:08:10.538Z,1.27
2023-06-28T08:10:37.615Z,1.08
2023-06-28T08:13:04.707Z,1.20
2023-06-28T08:15:35.330Z,1.10
2023-06-28T08:18:03.968Z,1.02
2023-06-28T08:20:31.359Z,1.08
2023-06-28T08:22:58.446Z,1.27
2023-06-28T08:25:25.490Z,1.20
2023-06-28T08:27:52.578Z,0.98
2023-06-28T08:30:19.654Z,1.05
2023-06-28T08:32:46.809Z,1.23
2023-06-28T08:35:13.973Z,1.10
2023-06-28T08:37:41.287Z,1.40
2023-06-28T08:40:08.932Z,1.40
2023-06-28T08:42:36.116Z,1.15
2023-06-28T08:45:04.627Z,1.10
2023-06-28T08:47:31.885Z,1.15
2023-06-28T08:49:59.054Z,1.27
2023-06-28T08:52:26.744Z,1.08
2023-06-28T08:54:53.866Z,1.17
2023-06-28T08:57:20.960Z,1.15
2023-06-28T08:59:48.128Z,1.02
2023-06-28T09:02:17.245Z,1.33
2023-06-28T09:04:44.317Z,1.10
2023-06-28T09:07:14.449Z,1.20
2023-06-28T09:09:41.903Z,1.38
2023-06-28T09:12:09.280Z,1.17
2023-06-28T09:14:36.334Z,0.80
2023-06-28T09:17:03.472Z,1.10
2023-06-28T09:19:30.580Z,1.20
2023-06-28T09:22:03.494Z,1.33
2023-06-28T09:24:33.934Z,1.27
2023-06-28T09:27:07.617Z,1.50
2023-06-28T09:29:34.883Z,1.45
2023-06-28T09:32:02.144Z,1.38
2023-06-28T09:34:29.261Z,1.67
2023-06-28T09:36:56.936Z,1.65
2023-06-28T09:39:24.500Z,1.27
2023-06-28T09:41:51.707Z,1.42
2023-06-28T09:44:28.438Z,1.10
2023-06-28T09:47:00.480Z,1.33
2023-06-28T09:49:27.650Z,1.45
2023-06-28T09:51:58.566Z,1.40
2023-06-28T09:54:32.177Z,1.08
2023-06-28T09:57:00.201Z,1.27
2023-06-28T09:59:36.167Z,1.45
2023-06-28T10:02:08.750Z,1.30
2023-06-28T10:04:36.651Z,1.20
2023-06-28T10:07:04.879Z,1.10
2023-06-28T10:09:36.117Z,1.50
2023-06-28T10:12:05.586Z,1.33
2023-06-28T10:14:32.653Z,1.10
2023-06-28T10:17:01.458Z,1.25
2023-06-28T10:19:28.983Z,1.17
2023-06-28T10:21:57.231Z,1.10
2023-06-28T10:24:24.767Z,1.30
2023-06-28T10:26:51.837Z,1.15
2023-06-28T10:29:18.921Z,0.90
2023-06-28T10:31:47.214Z,1.05
2023-06-28T10:34:15.726Z,1.08
2023-06-28T10:36:42.835Z,1.13
2023-06-28T10:39:09.915Z,1.00
2023-06-28T10:41:37.072Z,1.20
2023-06-28T10:44:05.437Z,1.30
2023-06-28T10:46:32.574Z,1.10
2023-06-28T10:49:00.807Z,1.42
2023-06-28T10:51:38.006Z,1.48
2023-06-28T10:54:13.890Z,1.50
2023-06-28T10:56:44.728Z,1.20
2023-06-28T10:59:11.848Z,1.40
2023-06-28T11:01:48.083Z,1.20
2023-06-28T11:04:19.526Z,1.30
2023-06-28T11:06:47.010Z,1.55
2023-06-28T11:09:17.524Z,1.40
2023-06-28T11:11:55.573Z,1.35
2023-06-28T11:14:26.877Z,1.25
2023-06-28T11:16:54.823Z,1.50
2023-06-28T11:19:26.010Z,1.20
2023-06-28T11:21:57.313Z,1.50
2023-06-28T11:24:37.607Z,0.93
2023-06-28T11:27:25.142Z,1.30
2023-06-28T11:29:57.761Z,1.17
2023-06-28T11:32:28.788Z,1.13
2023-06-28T11:34:56.105Z,1.10
2023-06-28T11:37:27.837Z,1.25
2023-06-28T11:39:55.065Z,1.13
2023-06-28T11:42:22.207Z,1.08
2023-06-28T11:44:49.939Z,1.20
2023-06-28T11:47:23.486Z,1.10
2023-06-28T11:49:52.917Z,1.20
2023-06-28T11:52:21.679Z,1.20
2023-06-28T11:54:48.779Z,1.27
2023-06-28T11:57:15.884Z,1.25
2023-06-28T11:59:45.645Z,1.40
2023-06-28T12:02:12.860Z,1.10
2023-06-28T12:04:40.382Z,1.35
2023-06-28T12:07:07.732Z,1.38
2023-06-28T12:09:35.765Z,1.40
2023-06-28T12:12:04.383Z,1.20
2023-06-28T12:14:32.278Z,1.40
2023-06-28T12:16:59.360Z,1.17
2023-06-28T12:19:27.945Z,1.05
2023-06-28T12:21:55.539Z,1.23
2023-06-28T12:24:25.494Z,1.70
2023-06-28T12:26:56.118Z,1.42
2023-06-28T12:29:23.563Z,1.00
2023-06-28T12:31:51.335Z,1.40
2023-06-28T12:34:24.466Z,1.40
2023-06-28T12:36:58.404Z,1.02
2023-06-28T12:39:29.278Z,1.30
2023-06-28T12:42:12.215Z,1.20
2023-06-28T12:44:49.815Z,1.30
2023-06-28T12:47:17.178Z,1.20
2023-06-28T12:49:45.336Z,1.63
2023-06-28T12:52:12.469Z,1.23
2023-06-28T12:54:39.773Z,1.13
2023-06-28T12:57:07.021Z,1.08
2023-06-28T12:59:37.259Z,1.00
2023-06-28T13:02:04.442Z,1.23
2023-06-28T13:04:35.197Z,1.00
2023-06-28T13:07:02.753Z,0.90
2023-06-28T13:09:29.874Z,1.52
2023-06-28T13:11:56.995Z,1.67
2023-06-28T13:14:24.253Z,1.48
2023-06-28T13:16:51.389Z,1.50
2023-06-28T13:19:18.462Z,1.40
2023-06-28T13:21:52.480Z,1.65
2023-06-28T13:24:26.037Z,1.90
2023-06-28T13:26:54.086Z,1.92
2023-06-28T13:29:21.209Z,1.50
2023-06-28T13:31:48.317Z,1.50
2023-06-28T13:34:16.005Z,1.98
2023-06-28T13:36:43.795Z,1.70
2023-06-28T13:39:10.898Z,1.70
2023-06-28T13:41:37.991Z,2.00
2023-06-28T13:44:05.222Z,1.80
2023-06-28T13:46:32.342Z,1.90
2023-06-28T13:48:59.452Z,1.70
2023-06-28T13:51:26.501Z,1.85
2023-06-28T13:53:54.274Z,1.50
2023-06-28T13:56:21.339Z,1.75
2023-06-28T13:58:48.457Z,1.67
2023-06-28T14:01:15.580Z,1.58
2023-06-28T14:03:42.754Z,1.60
2023-06-28T14:06:09.832Z,1.40
2023-06-28T14:08:36.958Z,2.05
2023-06-28T14:11:04.222Z,1.83
2023-06-28T14:13:31.322Z,1.58
2023-06-28T14:15:58.415Z,1.50
2023-06-28T14:18:25.464Z,1.77
2023-06-28T14:20:52.531Z,1.58
2023-06-28T14:23:19.704Z,1.73
2023-06-28T14:25:46.835Z,1.80
2023-06-28T14:28:14.633Z,1.80
2023-06-28T14:30:41.907Z,2.00
2023-06-28T14:33:09.055Z,1.75
2023-06-28T14:35:36.167Z,1.98
2023-06-28T14:38:04.600Z,1.80
2023-06-28T14:40:31.893Z,2.20
2023-06-28T14:42:58.969Z,2.10
2023-06-28T14:45:26.107Z,1.83
2023-06-28T14:47:53.170Z,1.70
2023-06-28T14:50:22.193Z,1.80
2023-06-28T14:52:49.273Z,1.77
2023-06-28T14:55:16.356Z,1.38
2023-06-28T14:57:43.409Z,1.70
2023-06-28T15:00:13.073Z,2.03
2023-06-28T15:02:40.341Z,1.90
2023-06-28T15:05:07.693Z,1.67
2023-06-28T15:07:34.868Z,1.70
2023-06-28T15:10:02.077Z,1.80
2023-06-28T15:12:29.135Z,1.70
2023-06-28T15:14:56.209Z,1.80
2023-06-28T15:17:23.415Z,1.60
2023-06-28T15:19:50.542Z,1.63
2023-06-28T15:22:19.087Z,2.10
2023-06-28T15:24:46.172Z,2.10
2023-06-28T15:27:13.293Z,1.65
2023-06-28T15:29:40.347Z,1.70
2023-06-28T15:32:07.895Z,2.20
2023-06-28T15:34:35.036Z,1.90
2023-06-28T15:37:02.136Z,2.50
2023-06-28T15:39:29.178Z,2.05
2023-06-28T15:41:56.371Z,1.70
2023-06-28T15:44:23.440Z,1.90
2023-06-28T15:46:51.269Z,2.13
2023-06-28T15:49:19.428Z,2.33
2023-06-28T15:51:46.497Z,1.85
2023-06-28T15:54:13.570Z,1.90
2023-06-28T15:56:42.340Z,2.17
2023-06-28T15:59:09.795Z,2.50
2023-06-28T16:01:36.895Z,2.30
2023-06-28T16:04:04.220Z,2.10
2023-06-28T16:06:31.453Z,2.47
2023-06-28T16:08:58.918Z,2.33
2023-06-28T16:11:27.123Z,2.15
2023-06-28T16:13:54.252Z,2.10
2023-06-28T16:16:21.333Z,1.90
2023-06-28T16:18:48.414Z,2.25
2023-06-28T16:21:15.469Z,2.38
2023-06-28T16:23:42.553Z,2.50
2023-06-28T16:26:09.668Z,2.33
2023-06-28T16:28:36.865Z,1.90
2023-06-28T16:31:04.017Z,2.38
2023-06-28T16:33:31.304Z,2.22
2023-06-28T16:35:58.370Z,2.22
2023-06-28T16:38:25.422Z,2.13
2023-06-28T16:40:52.485Z,2.10
2023-06-28T16:43:19.547Z,2.00
2023-06-28T16:45:46.594Z,2.45
2023-06-28T16:48:13.868Z,2.38
2023-06-28T16:50:41.316Z,2.22
2023-06-28T16:53:08.538Z,2.63
2023-06-28T16:55:35.591Z,2.50
2023-06-28T16:58:02.806Z,2.20
2023-06-28T17:00:30.045Z,2.30
2023-06-28T17:02:57.389Z,2.35
2023-06-28T17:05:24.545Z,2.05
2023-06-28T17:07:51.619Z,1.80
2023-06-28T17:10:18.715Z,1.70
2023-06-28T17:12:46.036Z,1.73
2023-06-28T17:15:13.441Z,2.17
2023-06-28T17:17:40.598Z,2.10
2023-06-28T17:20:08.031Z,2.22
2023-06-28T17:22:35.396Z,2.55
2023-06-28T17:25:02.895Z,2.20
2023-06-28T17:27:30.005Z,2.15
2023-06-28T17:29:57.076Z,2.42
2023-06-28T17:32:24.172Z,2.47
2023-06-28T17:34:51.533Z,2.17
2023-06-28T17:37:18.628Z,2.42
2023-06-28T17:39:45.745Z,1.95
2023-06-28T17:42:12.794Z,1.80
2023-06-28T17:44:39.898Z,2.10
2023-06-28T17:47:07.109Z,2.25
2023-06-28T17:49:34.201Z,2.00
2023-06-28T17:52:01.247Z,2.10
2023-06-28T17:54:29.439Z,1.80
2023-06-28T17:56:56.512Z,1.95
2023-06-28T17:59:23.573Z,2.03
2023-06-28T18:01:50.630Z,2.40
2023-06-28T18:04:17.758Z,2.45
2023-06-28T18:06:44.873Z,2.33
2023-06-28T18:09:12.103Z,2.30
2023-06-28T18:11:39.220Z,1.90
2023-06-28T18:14:06.301Z,2.13
2023-06-28T18:16:33.367Z,2.30
2023-06-28T18:19:00.470Z,2.60
2023-06-28T18:21:27.585Z,2.45
2023-06-28T18:23:54.642Z,2.60
2023-06-28T18:26:22.438Z,2.22
2023-06-28T18:28:49.519Z,2.55
2023-06-28T18:31:16.626Z,2.40
2023-06-28T18:33:43.776Z,2.20
2023-06-28T18:36:11.194Z,2.40
2023-06-28T18:38:38.364Z,2.45
2023-06-28T18:41:05.456Z,2.42
2023-06-28T18:43:32.711Z,2.35
2023-06-28T18:45:59.800Z,2.53
2023-06-28T18:48:26.847Z,3.13
2023-06-28T18:50:54.584Z,2.97
2023-06-28T18:53:21.957Z,3.17
2023-06-28T18:55:49.331Z,2.70
2023-06-28T18:58:34.193Z,2.65
2023-06-28T19:01:01.591Z,2.47
2023-06-28T19:03:29.039Z,2.90
2023-06-28T19:05:56.477Z,2.97
2023-06-28T19:08:23.741Z,2.70
2023-06-28T19:10:51.043Z,2.80
2023-06-28T19:13:21.407Z,2.55
2023-06-28T19:15:49.399Z,2.78
2023-06-28T19:18:16.548Z,2.40
2023-06-28T19:20:45.963Z,2.38
2023-06-28T19:23:13.198Z,2.38
2023-06-28T19:25:40.246Z,2.30
2023-06-28T19:28:07.311Z,2.17
2023-06-28T19:30:34.531Z,2.30
2023-06-28T19:33:01.707Z,2.22
2023-06-28T19:35:28.811Z,2.30
2023-06-28T19:37:55.889Z,2.63
2023-06-28T19:40:23.316Z,2.40
2023-06-28T19:42:50.377Z,2.80
2023-06-28T19:45:17.472Z,3.00
2023-06-28T19:47:44.663Z,2.83
2023-06-28T19:50:11.862Z,2.80
2023-06-28T19:52:38.966Z,2.97
2023-06-28T19:55:06.342Z,2.70
2023-06-28T19:57:33.426Z,2.50
2023-06-28T20:00:00.518Z,2.88
2023-06-28T20:02:27.650Z,2.60
2023-06-28T20:04:54.771Z,2.83
2023-06-28T20:07:22.559Z,3.08
2023-06-28T20:09:50.156Z,2.83
2023-06-28T20:12:17.280Z,2.53
2023-06-28T20:14:44.456Z,2.90
2023-06-28T20:17:11.528Z,3.08
2023-06-28T20:19:38.602Z,2.70
2023-06-28T20:22:05.865Z,2.95
2023-06-28T20:24:33.127Z,2.85
2023-06-28T20:27:00.715Z,2.90
2023-06-28T20:29:28.066Z,2.90
2023-06-28T20:31:55.153Z,2.90
2023-06-28T20:34:22.466Z,2.65
2023-06-28T20:36:50.741Z,2.78
2023-06-28T20:39:17.865Z,3.30
2023-06-28T20:41:46.546Z,3.08
2023-06-28T20:44:13.714Z,2.90
2023-06-28T20:46:40.824Z,2.90
2023-06-28T20:49:07.923Z,3.22
2023-06-28T20:51:35.042Z,3.35
2023-06-28T20:54:02.206Z,3.65
2023-06-28T20:56:29.311Z,3.20
2023-06-28T20:58:56.506Z,3.20
2023-06-28T21:01:23.662Z,3.08
2023-06-28T21:03:52.616Z,3.50
2023-06-28T21:06:21.981Z,3.30
2023-06-28T21:08:49.061Z,3.10
2023-06-28T21:11:17.035Z,2.95
2023-06-28T21:13:44.193Z,2.92
2023-06-28T21:16:11.607Z,3.17
2023-06-28T21:18:40.421Z,2.50
2023-06-28T21:21:07.577Z,2.40
2023-06-28T21:23:38.902Z,2.80
2023-06-28T21:26:06.278Z,2.67
2023-06-28T21:28:33.443Z,2.80
2023-06-28T21:31:00.604Z,2.88
2023-06-28T21:33:27.729Z,2.72
2023-06-28T21:35:54.812Z,2.97
2023-06-28T21:38:21.871Z,2.95
2023-06-28T21:40:49.133Z,2.60
2023-06-28T21:43:16.236Z,2.80
2023-06-28T21:45:43.583Z,3.13
2023-06-28T21:48:10.960Z,3.00
2023-06-28T21:50:38.013Z,2.85
2023-06-28T21:53:05.099Z,3.08
2023-06-28T21:55:32.191Z,3.50
2023-06-28T21:57:59.255Z,3.08
2023-06-28T22:00:28.586Z,2.85
2023-06-28T22:02:56.186Z,2.90
2023-06-28T22:05:23.438Z,2.97
2023-06-28T22:07:52.307Z,3.35
2023-06-28T22:10:19.786Z,2.70
2023-06-28T22:12:48.241Z,3.15
2023-06-28T22:15:16.880Z,2.75
2023-06-28T22:17:44.136Z,2.53
2023-06-28T22:20:12.153Z,3.03
2023-06-28T22:22:39.683Z,3.00
2023-06-28T22:25:06.831Z,3.35
2023-06-28T22:27:35.095Z,2.80
2023-06-28T22:30:02.727Z,3.47
2023-06-28T22:32:29.923Z,3.28
2023-06-28T22:34:57.114Z,3.42
2023-06-28T22:37:24.209Z,3.05
2023-06-28T22:39:51.491Z,3.17
2023-06-28T22:42:18.980Z,3.40
2023-06-28T22:44:46.174Z,3.90
2023-06-28T22:47:13.351Z,3.80
2023-06-28T22:49:42.641Z,4.60
2023-06-28T22:52:09.985Z,4.43
2023-06-28T22:54:37.192Z,3.90
2023-06-28T22:57:04.395Z,3.88
2023-06-28T22:59:31.461Z,3.63
2023-06-28T23:01:58.619Z,3.72
2023-06-28T23:04:25.705Z,3.97
2023-06-28T23:06:53.864Z,3.95
2023-06-28T23:09:20.999Z,3.67
2023-06-28T23:11:49.218Z,3.80
2023-06-28T23:14:16.505Z,3.90
2023-06-28T23:16:43.915Z,4.10
2023-06-28T23:19:10.988Z,4.00
2023-06-28T23:21:38.046Z,3.63
2023-06-28T23:24:05.413Z,3.70
2023-06-28T23:26:32.965Z,3.45
2023-06-28T23:29:00.186Z,3.42
2023-06-28T23:31:27.332Z,3.45
2023-06-28T23:33:55.596Z,3.60
2023-06-28T23:36:23.027Z,3.85
2023-06-28T23:38:53.885Z,4.13
2023-06-28T23:41:21.086Z,3.33
2023-06-28T23:43:48.285Z,3.40
2023-06-28T23:46:16.934Z,3.30
2023-06-28T23:48:45.371Z,3.63
2023-06-28T23:51:12.781Z,3.95
2023-06-28T23:53:40.166Z,3.20
2023-06-28T23:56:08.369Z,3.53
2023-06-28T23:58:35.808Z,3.58
